createdAt,value
2019-02-27T00:00:20.108Z,985.96
2019-02-27T00:01:20.096Z,985.97
2019-02-27T00:02:22.690Z,985.99
2019-02-27T00:03:20.071Z,985.98
2019-02-27T00:04:20.056Z,985.95
2019-02-27T00:05:20.039Z,985.95
2019-02-27T00:06:20.031Z,985.98
2019-02-27T00:07:20.974Z,985.98
2019-02-27T00:08:19.997Z,985.99
2019-02-27T00:09:19.985Z,985.95
2019-02-27T00:10:19.974Z,985.99
2019-02-27T00:11:19.977Z,985.99
2019-02-27T00:12:20.065Z,986.02
2019-02-27T00:13:19.928Z,985.99
2019-02-27T00:14:19.918Z,986.01
2019-02-27T00:15:19.900Z,985.98
2019-02-27T00:16:19.886Z,985.95
2019-02-27T00:17:19.877Z,985.98
2019-02-27T00:18:23.755Z,985.95
2019-02-27T00:19:19.846Z,985.94
2019-02-27T00:20:19.829Z,985.94
2019-02-27T00:21:19.818Z,985.94
2019-02-27T00:22:19.804Z,985.98
2019-02-27T00:23:23.886Z,985.93
2019-02-27T00:24:19.774Z,985.93
2019-02-27T00:25:19.760Z,985.91
2019-02-27T00:26:19.746Z,985.91
2019-02-27T00:27:19.735Z,985.95
2019-02-27T00:28:23.173Z,985.98
2019-02-27T00:29:19.704Z,985.99
2019-02-27T00:30:19.690Z,985.95
2019-02-27T00:31:19.678Z,985.96
2019-02-27T00:32:19.661Z,985.91
2019-02-27T00:33:25.249Z,985.94
2019-02-27T00:34:19.635Z,985.94
2019-02-27T00:35:19.622Z,985.95
2019-02-27T00:36:19.607Z,985.90
2019-02-27T00:37:19.593Z,985.93
2019-02-27T00:38:19.579Z,985.91
2019-02-27T00:39:19.564Z,985.89
2019-02-27T00:40:19.548Z,985.86
2019-02-27T00:41:19.535Z,985.82
2019-02-27T00:42:20.648Z,985.82
2019-02-27T00:43:19.509Z,985.84
2019-02-27T00:44:19.492Z,985.84
2019-02-27T00:45:19.480Z,985.83
2019-02-27T00:46:19.463Z,985.80
2019-02-27T00:47:20.123Z,985.81
2019-02-27T00:48:19.434Z,985.79
2019-02-27T00:49:19.421Z,985.77
2019-02-27T00:50:19.421Z,985.78
2019-02-27T00:51:19.395Z,985.74
2019-02-27T00:52:19.377Z,985.78
2019-02-27T00:53:19.364Z,985.76
2019-02-27T00:54:19.349Z,985.73
2019-02-27T00:55:19.337Z,985.69
2019-02-27T00:56:19.320Z,985.74
2019-02-27T00:57:20.812Z,985.73
2019-02-27T00:58:19.293Z,985.75
2019-02-27T00:59:19.279Z,985.68
2019-02-27T01:00:19.269Z,985.70
2019-02-27T01:01:19.249Z,985.67
2019-02-27T01:02:20.161Z,985.69
2019-02-27T01:03:19.221Z,985.64
2019-02-27T01:04:19.208Z,985.69
2019-02-27T01:05:19.195Z,985.68
2019-02-27T01:06:19.179Z,985.70
2019-02-27T01:07:20.688Z,985.64
2019-02-27T01:08:19.179Z,985.62
2019-02-27T01:09:19.135Z,985.61
2019-02-27T01:10:19.136Z,985.54
2019-02-27T01:11:19.110Z,985.56
2019-02-27T01:12:19.096Z,985.55
2019-02-27T01:13:19.082Z,985.51
2019-02-27T01:14:19.068Z,985.51
2019-02-27T01:15:19.052Z,985.52
2019-02-27T01:16:19.038Z,985.52
2019-02-27T01:17:20.943Z,985.48
2019-02-27T01:18:19.005Z,985.47
2019-02-27T01:19:18.992Z,985.47
2019-02-27T01:20:18.978Z,985.49
2019-02-27T01:21:20.037Z,985.49
2019-02-27T01:22:18.951Z,985.48
2019-02-27T01:23:18.934Z,985.47
2019-02-27T01:24:18.931Z,985.43
2019-02-27T01:25:22.901Z,985.43
2019-02-27T01:26:18.890Z,985.44
2019-02-27T01:27:18.878Z,985.37
2019-02-27T01:28:18.864Z,985.42
2019-02-27T01:29:18.847Z,985.43
2019-02-27T01:30:18.834Z,985.39
2019-02-27T01:31:18.820Z,985.42
2019-02-27T01:32:18.805Z,985.40
2019-02-27T01:33:18.789Z,985.43
2019-02-27T01:34:18.782Z,985.41
2019-02-27T01:35:18.974Z,985.36
2019-02-27T01:36:18.744Z,985.38
2019-02-27T01:37:18.730Z,985.38
2019-02-27T01:38:18.721Z,985.36
2019-02-27T01:39:18.702Z,985.35
2019-02-27T01:40:18.740Z,985.31
2019-02-27T01:41:18.673Z,985.31
2019-02-27T01:42:18.661Z,985.25
2019-02-27T01:43:18.646Z,985.25
2019-02-27T01:44:18.629Z,985.21
2019-02-27T01:45:21.114Z,985.24
2019-02-27T01:46:18.601Z,985.25
2019-02-27T01:47:18.588Z,985.24
2019-02-27T01:48:18.572Z,985.19
2019-02-27T01:49:18.558Z,985.23
2019-02-27T01:50:19.967Z,985.17
2019-02-27T01:51:18.530Z,985.18
2019-02-27T01:52:18.511Z,985.12
2019-02-27T01:53:18.498Z,985.10
2019-02-27T01:54:18.485Z,985.15
2019-02-27T01:55:21.675Z,985.12
2019-02-27T01:56:18.454Z,985.08
2019-02-27T01:57:18.442Z,985.06
2019-02-27T01:58:18.425Z,985.06
2019-02-27T01:59:18.410Z,985.07
2019-02-27T02:00:22.923Z,985.06
2019-02-27T02:01:18.380Z,985.09
2019-02-27T02:02:18.366Z,985.10
2019-02-27T02:03:18.351Z,985.09
2019-02-27T02:04:20.271Z,985.10
2019-02-27T02:05:18.323Z,985.06
2019-02-27T02:06:18.306Z,985.05
2019-02-27T02:07:18.292Z,985.05
2019-02-27T02:08:18.279Z,985.03
2019-02-27T02:09:21.053Z,984.98
2019-02-27T02:10:18.249Z,984.95
2019-02-27T02:11:18.235Z,984.94
2019-02-27T02:12:18.220Z,984.94
2019-02-27T02:13:18.204Z,984.92
2019-02-27T02:14:21.000Z,984.90
2019-02-27T02:15:18.174Z,984.88
2019-02-27T02:16:18.159Z,984.85
2019-02-27T02:17:18.144Z,984.89
2019-02-27T02:18:18.134Z,984.88
2019-02-27T02:19:19.004Z,984.89
2019-02-27T02:20:18.101Z,984.87
2019-02-27T02:21:18.086Z,984.85
2019-02-27T02:22:18.070Z,984.87
2019-02-27T02:23:18.056Z,984.88
2019-02-27T02:24:20.904Z,984.88
2019-02-27T02:25:18.027Z,984.85
2019-02-27T02:26:18.013Z,984.86
2019-02-27T02:27:17.998Z,984.85
2019-02-27T02:28:17.980Z,984.88
2019-02-27T02:29:20.418Z,984.90
2019-02-27T02:30:17.955Z,984.90
2019-02-27T02:31:17.937Z,984.92
2019-02-27T02:32:18.172Z,984.90
2019-02-27T02:33:17.906Z,984.87
2019-02-27T02:34:17.893Z,984.89
2019-02-27T02:35:17.881Z,984.88
2019-02-27T02:36:17.868Z,984.85
2019-02-27T02:37:17.866Z,984.84
2019-02-27T02:38:17.855Z,984.80
2019-02-27T02:39:19.236Z,984.80
2019-02-27T02:40:17.803Z,984.78
2019-02-27T02:41:17.793Z,984.79
2019-02-27T02:42:17.785Z,984.79
2019-02-27T02:43:17.756Z,984.83
2019-02-27T02:44:20.663Z,984.83
2019-02-27T02:45:17.726Z,984.82
2019-02-27T02:46:17.714Z,984.82
2019-02-27T02:47:21.025Z,984.83
2019-02-27T02:48:17.685Z,984.81
2019-02-27T02:49:17.672Z,984.76
2019-02-27T02:50:18.439Z,984.74
2019-02-27T02:51:17.637Z,984.72
2019-02-27T02:52:17.627Z,984.74
2019-02-27T02:53:17.606Z,984.76
2019-02-27T02:54:17.592Z,984.77
2019-02-27T02:55:17.582Z,984.71
2019-02-27T02:56:17.561Z,984.70
2019-02-27T02:57:17.549Z,984.70
2019-02-27T02:58:17.533Z,984.70
2019-02-27T02:59:24.254Z,984.74
2019-02-27T03:00:17.502Z,984.72
2019-02-27T03:01:17.486Z,984.71
2019-02-27T03:02:23.399Z,984.70
2019-02-27T03:03:17.457Z,984.77
2019-02-27T03:04:17.443Z,984.74
2019-02-27T03:05:22.889Z,984.72
2019-02-27T03:06:17.412Z,984.71
2019-02-27T03:07:17.396Z,984.74
2019-02-27T03:08:20.148Z,984.72
2019-02-27T03:09:17.371Z,984.72
2019-02-27T03:11:19.059Z,984.71
2019-02-27T03:12:17.321Z,984.71
2019-02-27T03:13:17.349Z,984.73
2019-02-27T03:14:18.420Z,984.72
2019-02-27T03:15:17.277Z,984.71
2019-02-27T03:16:17.261Z,984.74
2019-02-27T03:17:18.430Z,984.73
2019-02-27T03:18:17.230Z,984.71
2019-02-27T03:19:17.215Z,984.71
2019-02-27T03:20:17.817Z,984.72
2019-02-27T03:21:17.191Z,984.71
2019-02-27T03:22:17.173Z,984.79
2019-02-27T03:23:17.159Z,984.77
2019-02-27T03:24:17.142Z,984.78
2019-02-27T03:25:17.126Z,984.81
2019-02-27T03:26:17.800Z,984.80
2019-02-27T03:27:17.094Z,984.81
2019-02-27T03:28:17.078Z,984.80
2019-02-27T03:29:17.396Z,984.82
2019-02-27T03:30:17.050Z,984.79
2019-02-27T03:31:19.187Z,984.74
2019-02-27T03:32:17.018Z,984.75
2019-02-27T03:33:23.632Z,984.75
2019-02-27T03:34:16.987Z,984.74
2019-02-27T03:35:16.975Z,984.75
2019-02-27T03:36:16.955Z,984.72
2019-02-27T03:37:16.942Z,984.71
2019-02-27T03:38:16.929Z,984.73
2019-02-27T03:39:16.911Z,984.71
2019-02-27T03:40:16.894Z,984.67
2019-02-27T03:41:22.462Z,984.69
2019-02-27T03:42:16.868Z,984.63
2019-02-27T03:43:16.852Z,984.61
2019-02-27T03:44:20.207Z,984.64
2019-02-27T03:45:16.820Z,984.65
2019-02-27T03:46:16.806Z,984.64
2019-02-27T03:47:17.049Z,984.64
2019-02-27T03:48:16.784Z,984.63
2019-02-27T03:49:16.757Z,984.61
2019-02-27T03:50:16.745Z,984.63
2019-02-27T03:51:16.756Z,984.61
2019-02-27T03:52:16.717Z,984.60
2019-02-27T03:53:16.700Z,984.60
2019-02-27T03:54:20.875Z,984.62
2019-02-27T03:55:16.668Z,984.63
2019-02-27T03:56:16.653Z,984.62
2019-02-27T03:57:20.124Z,984.64
2019-02-27T03:58:16.623Z,984.57
2019-02-27T03:59:16.608Z,984.54
2019-02-27T04:00:19.099Z,984.58
2019-02-27T04:01:16.578Z,984.54
2019-02-27T04:02:16.561Z,984.52
2019-02-27T04:03:18.157Z,984.56
2019-02-27T04:04:16.530Z,984.52
2019-02-27T04:05:16.516Z,984.50
2019-02-27T04:06:19.626Z,984.53
2019-02-27T04:07:16.485Z,984.44
2019-02-27T04:08:16.469Z,984.45
2019-02-27T04:09:19.812Z,984.46
2019-02-27T04:10:16.438Z,984.42
2019-02-27T04:11:16.427Z,984.43
2019-02-27T04:12:17.431Z,984.42
2019-02-27T04:13:16.391Z,984.42
2019-02-27T04:14:16.375Z,984.43
2019-02-27T04:15:18.096Z,984.41
2019-02-27T04:16:16.345Z,984.41
2019-02-27T04:17:16.330Z,984.45
2019-02-27T04:18:16.317Z,984.46
2019-02-27T04:19:16.299Z,984.48
2019-02-27T04:20:16.285Z,984.53
2019-02-27T04:21:16.268Z,984.52
2019-02-27T04:22:16.256Z,984.51
2019-02-27T04:23:16.247Z,984.53
2019-02-27T04:24:16.223Z,984.50
2019-02-27T04:25:16.211Z,984.50
2019-02-27T04:26:16.202Z,984.48
2019-02-27T04:27:20.198Z,984.52
2019-02-27T04:28:16.160Z,984.49
2019-02-27T04:29:16.144Z,984.53
2019-02-27T04:30:16.145Z,984.52
2019-02-27T04:31:16.126Z,984.55
2019-02-27T04:32:16.099Z,984.56
2019-02-27T04:33:16.091Z,984.54
2019-02-27T04:34:16.068Z,984.56
2019-02-27T04:35:16.052Z,984.55
2019-02-27T04:36:16.036Z,984.57
2019-02-27T04:37:17.743Z,984.55
2019-02-27T04:38:16.011Z,984.56
2019-02-27T04:39:15.992Z,984.59
2019-02-27T04:40:15.975Z,984.62
2019-02-27T04:41:18.048Z,984.61
2019-02-27T04:42:15.945Z,984.62
2019-02-27T04:43:15.929Z,984.62
2019-02-27T04:44:15.913Z,984.61
2019-02-27T04:45:15.901Z,984.60
2019-02-27T04:46:15.882Z,984.62
2019-02-27T04:47:15.877Z,984.63
2019-02-27T04:48:15.850Z,984.59
2019-02-27T04:49:15.835Z,984.57
2019-02-27T04:50:15.824Z,984.51
2019-02-27T04:51:17.254Z,984.53
2019-02-27T04:52:15.789Z,984.51
2019-02-27T04:53:15.774Z,984.53
2019-02-27T04:54:15.761Z,984.51
2019-02-27T04:55:16.264Z,984.52
2019-02-27T04:56:15.732Z,984.53
2019-02-27T04:57:15.713Z,984.53
2019-02-27T04:58:15.695Z,984.51
2019-02-27T04:59:18.560Z,984.49
2019-02-27T05:00:15.664Z,984.49
2019-02-27T05:01:15.651Z,984.48
2019-02-27T05:02:15.636Z,984.51
2019-02-27T05:03:15.619Z,984.52
2019-02-27T05:04:15.602Z,984.54
2019-02-27T05:05:15.590Z,984.49
2019-02-27T05:06:15.573Z,984.47
2019-02-27T05:07:20.097Z,984.46
2019-02-27T05:08:15.540Z,984.47
2019-02-27T05:09:15.531Z,984.45
2019-02-27T05:10:15.511Z,984.47
2019-02-27T05:11:15.497Z,984.44
2019-02-27T05:12:15.481Z,984.48
2019-02-27T05:13:15.464Z,984.53
2019-02-27T05:14:15.450Z,984.55
2019-02-27T05:15:15.432Z,984.51
2019-02-27T05:16:15.416Z,984.53
2019-02-27T05:17:15.401Z,984.54
2019-02-27T05:18:15.396Z,984.55
2019-02-27T05:19:15.399Z,984.54
2019-02-27T05:20:15.355Z,984.57
2019-02-27T05:21:18.994Z,984.54
2019-02-27T05:22:15.330Z,984.59
2019-02-27T05:23:15.308Z,984.60
2019-02-27T05:24:15.293Z,984.57
2019-02-27T05:25:15.278Z,984.56
2019-02-27T05:26:15.261Z,984.54
2019-02-27T05:27:15.246Z,984.53
2019-02-27T05:28:15.231Z,984.54
2019-02-27T05:29:15.848Z,984.53
2019-02-27T05:30:15.200Z,984.52
2019-02-27T05:31:18.354Z,984.56
2019-02-27T05:32:15.170Z,984.54
2019-02-27T05:33:15.155Z,984.58
2019-02-27T05:34:15.142Z,984.60
2019-02-27T05:35:15.122Z,984.60
2019-02-27T05:36:15.108Z,984.64
2019-02-27T05:37:15.091Z,984.59
2019-02-27T05:38:15.078Z,984.64
2019-02-27T05:39:17.290Z,984.60
2019-02-27T05:40:15.046Z,984.57
2019-02-27T05:41:15.027Z,984.60
2019-02-27T05:42:15.012Z,984.58
2019-02-27T05:43:14.998Z,984.61
2019-02-27T05:44:14.990Z,984.60
2019-02-27T05:45:14.967Z,984.63
2019-02-27T05:46:15.184Z,984.62
2019-02-27T05:47:14.936Z,984.59
2019-02-27T05:48:14.919Z,984.57
2019-02-27T05:49:14.902Z,984.57
2019-02-27T05:50:14.888Z,984.58
2019-02-27T05:51:14.875Z,984.55
2019-02-27T05:52:15.090Z,984.58
2019-02-27T05:53:14.841Z,984.56
2019-02-27T05:54:14.825Z,984.54
2019-02-27T05:55:14.810Z,984.57
2019-02-27T05:56:16.299Z,984.58
2019-02-27T05:57:14.776Z,984.56
2019-02-27T05:58:14.764Z,984.57
2019-02-27T05:59:14.746Z,984.57
2019-02-27T06:00:14.729Z,984.55
2019-02-27T06:01:14.715Z,984.56
2019-02-27T06:02:14.700Z,984.53
2019-02-27T06:03:15.915Z,984.57
2019-02-27T06:04:14.667Z,984.59
2019-02-27T06:05:14.651Z,984.54
2019-02-27T06:06:14.639Z,984.55
2019-02-27T06:07:18.663Z,984.52
2019-02-27T06:08:14.605Z,984.48
2019-02-27T06:09:14.581Z,984.45
2019-02-27T06:10:17.465Z,984.46
2019-02-27T06:11:14.548Z,984.47
2019-02-27T06:12:14.530Z,984.48
2019-02-27T06:13:14.740Z,984.47
2019-02-27T06:14:14.497Z,984.49
2019-02-27T06:15:14.483Z,984.51
2019-02-27T06:16:14.469Z,984.48
2019-02-27T06:17:14.450Z,984.49
2019-02-27T06:18:14.436Z,984.50
2019-02-27T06:19:14.419Z,984.48
2019-02-27T06:20:14.382Z,984.48
2019-02-27T06:21:16.516Z,984.44
2019-02-27T06:22:14.353Z,984.46
2019-02-27T06:23:14.338Z,984.46
2019-02-27T06:24:14.321Z,984.47
2019-02-27T06:25:18.476Z,984.47
2019-02-27T06:26:14.288Z,984.48
2019-02-27T06:27:14.271Z,984.47
2019-02-27T06:28:18.506Z,984.46
2019-02-27T06:29:14.243Z,984.48
2019-02-27T06:30:14.227Z,984.48
2019-02-27T06:31:14.210Z,984.49
2019-02-27T06:32:14.191Z,984.48
2019-02-27T06:33:14.180Z,984.49
2019-02-27T06:34:14.165Z,984.47
2019-02-27T06:35:14.145Z,984.48
2019-02-27T06:36:14.130Z,984.47
2019-02-27T06:37:15.515Z,984.48
2019-02-27T06:38:14.102Z,984.46
2019-02-27T06:39:14.085Z,984.47
2019-02-27T06:40:14.070Z,984.47
2019-02-27T06:41:15.766Z,984.51
2019-02-27T06:42:14.164Z,984.48
2019-02-27T06:43:14.023Z,984.49
2019-02-27T06:44:14.013Z,984.52
2019-02-27T06:45:13.990Z,984.50
2019-02-27T06:46:13.976Z,984.55
2019-02-27T06:47:13.959Z,984.55
2019-02-27T06:48:13.943Z,984.53
2019-02-27T06:49:17.310Z,984.55
2019-02-27T06:50:13.910Z,984.54
2019-02-27T06:51:13.893Z,984.51
2019-02-27T06:52:13.879Z,984.51
2019-02-27T06:53:16.494Z,984.51
2019-02-27T06:54:18.127Z,984.55
2019-02-27T06:55:13.832Z,984.53
2019-02-27T06:56:13.820Z,984.51
2019-02-27T06:57:13.800Z,984.53
2019-02-27T06:58:14.796Z,984.53
2019-02-27T06:59:13.770Z,984.52
2019-02-27T07:00:13.754Z,984.52
2019-02-27T07:01:13.736Z,984.51
2019-02-27T07:02:13.725Z,984.53
2019-02-27T07:03:13.708Z,984.57
2019-02-27T07:04:13.692Z,984.59
2019-02-27T07:05:14.136Z,984.57
2019-02-27T07:06:13.664Z,984.61
2019-02-27T07:07:13.647Z,984.58
2019-02-27T07:08:13.629Z,984.57
2019-02-27T07:09:13.616Z,984.61
2019-02-27T07:10:13.602Z,984.56
2019-02-27T07:11:13.588Z,984.57
2019-02-27T07:12:13.569Z,984.55
2019-02-27T07:13:13.594Z,984.50
2019-02-27T07:14:13.539Z,984.52
2019-02-27T07:15:13.547Z,984.52
2019-02-27T07:16:13.505Z,984.52
2019-02-27T07:17:13.489Z,984.45
2019-02-27T07:18:13.475Z,984.47
2019-02-27T07:19:15.838Z,984.48
2019-02-27T07:20:13.446Z,984.48
2019-02-27T07:21:13.429Z,984.43
2019-02-27T07:22:13.413Z,984.49
2019-02-27T07:23:13.400Z,984.49
2019-02-27T07:24:13.381Z,984.46
2019-02-27T07:25:13.365Z,984.42
2019-02-27T07:26:15.875Z,984.41
2019-02-27T07:27:13.336Z,984.46
2019-02-27T07:28:13.319Z,984.45
2019-02-27T07:29:21.370Z,984.43
2019-02-27T07:30:13.287Z,984.38
2019-02-27T07:31:17.565Z,984.41
2019-02-27T07:32:13.256Z,984.41
2019-02-27T07:33:13.241Z,984.39
2019-02-27T07:34:14.379Z,984.38
2019-02-27T07:35:13.212Z,984.33
2019-02-27T07:36:13.194Z,984.35
2019-02-27T07:37:13.595Z,984.32
2019-02-27T07:38:13.164Z,984.32
2019-02-27T07:39:13.151Z,984.41
2019-02-27T07:40:13.134Z,984.36
2019-02-27T07:41:17.464Z,984.40
2019-02-27T07:42:13.103Z,984.37
2019-02-27T07:43:13.088Z,984.35
2019-02-27T07:44:13.073Z,984.34
2019-02-27T07:45:13.058Z,984.32
2019-02-27T07:46:13.048Z,984.34
2019-02-27T07:47:13.029Z,984.33
2019-02-27T07:48:13.010Z,984.35
2019-02-27T07:49:12.999Z,984.35
2019-02-27T07:50:12.985Z,984.35
2019-02-27T07:51:12.968Z,984.36
2019-02-27T07:52:12.952Z,984.35
2019-02-27T07:53:17.492Z,984.35
2019-02-27T07:54:12.924Z,984.33
2019-02-27T07:55:21.505Z,984.38
2019-02-27T07:56:12.890Z,984.38
2019-02-27T07:57:12.877Z,984.43
2019-02-27T07:58:12.863Z,984.41
2019-02-27T07:59:12.848Z,984.41
2019-02-27T08:00:15.160Z,984.43
2019-02-27T08:01:12.819Z,984.37
2019-02-27T08:02:12.804Z,984.37
2019-02-27T08:03:13.136Z,984.39
2019-02-27T08:04:12.775Z,984.43
2019-02-27T08:05:12.764Z,984.39
2019-02-27T08:06:12.746Z,984.38
2019-02-27T08:07:13.107Z,984.37
2019-02-27T08:08:12.716Z,984.37
2019-02-27T08:09:12.702Z,984.34
2019-02-27T08:10:12.687Z,984.32
2019-02-27T08:11:13.655Z,984.32
2019-02-27T08:12:12.663Z,984.30
2019-02-27T08:13:12.646Z,984.28
2019-02-27T08:14:13.084Z,984.27
2019-02-27T08:15:13.599Z,984.30
2019-02-27T08:16:12.603Z,984.30
2019-02-27T08:17:17.734Z,984.21
2019-02-27T08:18:12.672Z,984.23
2019-02-27T08:19:12.559Z,984.17
2019-02-27T08:20:12.547Z,984.18
2019-02-27T08:21:12.532Z,984.19
2019-02-27T08:22:12.518Z,984.19
2019-02-27T08:23:12.504Z,984.19
2019-02-27T08:24:12.490Z,984.19
2019-02-27T08:25:12.477Z,984.17
2019-02-27T08:26:12.462Z,984.15
2019-02-27T08:27:12.451Z,984.18
2019-02-27T08:28:12.435Z,984.14
2019-02-27T08:29:12.422Z,984.18
2019-02-27T08:30:12.408Z,984.18
2019-02-27T08:31:12.399Z,984.16
2019-02-27T08:32:12.379Z,984.17
2019-02-27T08:33:12.375Z,984.10
2019-02-27T08:34:12.352Z,984.14
2019-02-27T08:35:12.340Z,984.11
2019-02-27T08:36:12.326Z,984.09
2019-02-27T08:37:12.315Z,984.11
2019-02-27T08:38:12.311Z,984.12
2019-02-27T08:39:12.288Z,984.10
2019-02-27T08:40:12.276Z,984.09
2019-02-27T08:41:12.267Z,984.10
2019-02-27T08:42:12.246Z,984.11
2019-02-27T08:43:12.235Z,984.12
2019-02-27T08:44:12.533Z,984.06
2019-02-27T08:45:19.192Z,984.03
2019-02-27T08:46:12.196Z,984.02
2019-02-27T08:47:12.184Z,984.01
2019-02-27T08:48:17.096Z,984.03
2019-02-27T08:49:12.156Z,984.01
2019-02-27T08:50:13.852Z,984.02
2019-02-27T08:51:12.131Z,983.99
2019-02-27T08:52:13.122Z,983.99
2019-02-27T08:53:12.105Z,983.97
2019-02-27T08:54:12.091Z,983.97
2019-02-27T08:55:18.782Z,983.97
2019-02-27T08:56:12.301Z,984.01
2019-02-27T08:57:12.053Z,984.06
2019-02-27T08:58:12.041Z,984.02
2019-02-27T08:59:12.028Z,984.03
2019-02-27T09:00:14.209Z,984.06
2019-02-27T09:01:12.002Z,984.04
2019-02-27T09:02:11.992Z,984.02
2019-02-27T09:03:19.944Z,984.00
2019-02-27T09:04:12.402Z,983.98
2019-02-27T09:05:11.957Z,983.96
2019-02-27T09:06:11.941Z,984.00
2019-02-27T09:07:11.930Z,983.97
2019-02-27T09:08:11.916Z,983.98
2019-02-27T09:09:11.903Z,983.98
2019-02-27T09:10:11.894Z,983.98
2019-02-27T09:11:11.880Z,983.97
2019-02-27T09:12:13.378Z,983.95
2019-02-27T09:13:11.853Z,983.92
2019-02-27T09:14:12.070Z,983.92
2019-02-27T09:15:11.829Z,983.88
2019-02-27T09:16:11.817Z,983.86
2019-02-27T09:17:11.805Z,983.85
2019-02-27T09:18:11.794Z,983.82
2019-02-27T09:20:12.650Z,983.78
2019-02-27T09:21:11.758Z,983.80
2019-02-27T09:22:11.745Z,983.78
2019-02-27T09:23:11.732Z,983.75
2019-02-27T09:24:11.722Z,983.73
2019-02-27T09:25:11.709Z,983.75
2019-02-27T09:26:11.697Z,983.73
2019-02-27T09:27:11.684Z,983.75
2019-02-27T09:28:11.674Z,983.70
2019-02-27T09:29:11.662Z,983.72
2019-02-27T09:30:11.647Z,983.70
2019-02-27T09:31:12.205Z,983.71
2019-02-27T09:32:11.781Z,983.62
2019-02-27T09:33:11.617Z,983.66
2019-02-27T09:34:11.677Z,983.63
2019-02-27T09:35:11.594Z,983.62
2019-02-27T09:36:11.583Z,983.60
2019-02-27T09:37:13.872Z,983.59
2019-02-27T09:38:11.559Z,983.59
2019-02-27T09:39:11.546Z,983.63
2019-02-27T09:40:11.535Z,983.61
2019-02-27T09:41:12.409Z,983.63
2019-02-27T09:42:11.513Z,983.66
2019-02-27T09:43:11.743Z,983.65
2019-02-27T09:44:11.489Z,983.66
2019-02-27T09:45:11.920Z,983.62
2019-02-27T09:46:11.468Z,983.62
2019-02-27T09:47:11.458Z,983.59
2019-02-27T09:48:11.455Z,983.58
2019-02-27T09:49:11.437Z,983.55
2019-02-27T09:50:11.865Z,983.52
2019-02-27T09:51:11.413Z,983.50
2019-02-27T09:52:11.401Z,983.48
2019-02-27T09:53:11.392Z,983.48
2019-02-27T09:54:13.307Z,983.47
2019-02-27T09:55:11.375Z,983.49
2019-02-27T09:56:11.695Z,983.46
2019-02-27T09:57:11.349Z,983.46
2019-02-27T09:58:11.628Z,983.47
2019-02-27T09:59:11.329Z,983.43
2019-02-27T10:00:11.315Z,983.42
2019-02-27T10:01:11.308Z,983.37
2019-02-27T10:02:12.486Z,983.39
2019-02-27T10:03:11.287Z,983.33
2019-02-27T10:04:11.273Z,983.32
2019-02-27T10:05:12.476Z,983.27
2019-02-27T10:06:11.253Z,983.25
2019-02-27T10:07:11.243Z,983.25
2019-02-27T10:08:11.231Z,983.20
2019-02-27T10:09:11.223Z,983.20
2019-02-27T10:10:11.212Z,983.13
2019-02-27T10:11:11.211Z,983.13
2019-02-27T10:12:11.194Z,983.13
2019-02-27T10:13:11.183Z,983.11
2019-02-27T10:14:11.171Z,983.11
2019-02-27T10:15:11.162Z,983.09
2019-02-27T10:16:11.153Z,983.07
2019-02-27T10:17:11.140Z,983.02
2019-02-27T10:18:11.135Z,983.00
2019-02-27T10:19:11.122Z,983.00
2019-02-27T10:20:11.112Z,982.98
2019-02-27T10:21:12.107Z,982.96
2019-02-27T10:22:11.091Z,982.93
2019-02-27T10:23:11.099Z,982.91
2019-02-27T10:24:11.073Z,982.88
2019-02-27T10:25:11.063Z,982.86
2019-02-27T10:26:11.054Z,982.86
2019-02-27T10:27:11.043Z,982.80
2019-02-27T10:28:11.038Z,982.79
2019-02-27T10:29:13.432Z,982.76
2019-02-27T10:30:11.686Z,982.77
2019-02-27T10:31:12.650Z,982.75
2019-02-27T10:32:10.997Z,982.72
2019-02-27T10:33:11.838Z,982.69
2019-02-27T10:34:10.979Z,982.66
2019-02-27T10:35:10.970Z,982.63
2019-02-27T10:36:10.959Z,982.61
2019-02-27T10:37:13.312Z,982.58
2019-02-27T10:38:10.945Z,982.58
2019-02-27T10:39:10.934Z,982.62
2019-02-27T10:40:11.471Z,982.60
2019-02-27T10:41:10.915Z,982.57
2019-02-27T10:42:10.906Z,982.57
2019-02-27T10:43:10.895Z,982.57
2019-02-27T10:44:10.886Z,982.56
2019-02-27T10:45:10.881Z,982.55
2019-02-27T10:46:10.871Z,982.55
2019-02-27T10:47:10.859Z,982.56
2019-02-27T10:48:12.538Z,982.58
2019-02-27T10:49:10.841Z,982.56
2019-02-27T10:50:12.532Z,982.60
2019-02-27T10:51:10.824Z,982.54
2019-02-27T10:52:10.815Z,982.53
2019-02-27T10:53:10.806Z,982.53
2019-02-27T10:54:10.798Z,982.50
2019-02-27T10:55:11.228Z,982.51
2019-02-27T10:56:10.780Z,982.52
2019-02-27T10:57:10.771Z,982.51
2019-02-27T10:58:13.170Z,982.48
2019-02-27T10:59:10.753Z,982.44
2019-02-27T11:00:10.745Z,982.46
2019-02-27T11:01:10.741Z,982.41
2019-02-27T11:02:12.524Z,982.39
2019-02-27T11:03:10.720Z,982.38
2019-02-27T11:04:10.713Z,982.39
2019-02-27T11:05:10.704Z,982.36
2019-02-27T11:06:10.701Z,982.31
2019-02-27T11:07:13.204Z,982.32
2019-02-27T11:08:10.679Z,982.32
2019-02-27T11:09:10.672Z,982.28
2019-02-27T11:10:10.661Z,982.27
2019-02-27T11:11:13.137Z,982.21
2019-02-27T11:12:10.647Z,982.25
2019-02-27T11:13:10.636Z,982.27
2019-02-27T11:14:10.628Z,982.24
2019-02-27T11:15:10.620Z,982.24
2019-02-27T11:16:10.610Z,982.28
2019-02-27T11:17:10.607Z,982.26
2019-02-27T11:18:10.594Z,982.21
2019-02-27T11:19:10.586Z,982.21
2019-02-27T11:20:10.578Z,982.15
2019-02-27T11:21:10.570Z,982.09
2019-02-27T11:22:10.562Z,982.14
2019-02-27T11:23:10.555Z,982.11
2019-02-27T11:24:10.547Z,982.15
2019-02-27T11:25:10.538Z,982.12
2019-02-27T11:26:10.531Z,982.05
2019-02-27T11:27:10.522Z,982.03
2019-02-27T11:28:10.513Z,981.99
2019-02-27T11:29:10.506Z,982.03
2019-02-27T11:30:10.500Z,981.94
2019-02-27T11:31:11.028Z,981.93
2019-02-27T11:32:10.482Z,981.96
2019-02-27T11:33:10.479Z,981.95
2019-02-27T11:34:10.469Z,981.91
2019-02-27T11:35:10.456Z,981.91
2019-02-27T11:36:10.448Z,981.85
2019-02-27T11:37:13.779Z,981.85
2019-02-27T11:38:10.435Z,981.82
2019-02-27T11:39:10.424Z,981.83
2019-02-27T11:40:10.415Z,981.80
2019-02-27T11:41:14.925Z,981.84
2019-02-27T11:42:10.400Z,981.80
2019-02-27T11:43:10.393Z,981.78
2019-02-27T11:44:14.063Z,981.79
2019-02-27T11:45:10.383Z,981.77
2019-02-27T11:46:10.371Z,981.78
2019-02-27T11:47:11.362Z,981.76
2019-02-27T11:48:10.355Z,981.75
2019-02-27T11:49:10.346Z,981.69
2019-02-27T11:50:10.340Z,981.65
2019-02-27T11:51:10.331Z,981.67
2019-02-27T11:52:10.322Z,981.62
2019-02-27T11:53:10.316Z,981.61
2019-02-27T11:54:10.308Z,981.60
2019-02-27T11:55:10.302Z,981.59
2019-02-27T11:56:10.295Z,981.58
2019-02-27T11:57:10.289Z,981.58
2019-02-27T11:58:10.282Z,981.58
2019-02-27T11:59:12.808Z,981.56
2019-02-27T12:00:10.268Z,981.55
2019-02-27T12:01:12.096Z,981.50
2019-02-27T12:02:10.253Z,981.53
2019-02-27T12:03:11.080Z,981.49
2019-02-27T12:04:10.239Z,981.48
2019-02-27T12:05:10.231Z,981.47
2019-02-27T12:06:10.224Z,981.47
2019-02-27T12:07:12.187Z,981.45
2019-02-27T12:08:11.371Z,981.42
2019-02-27T12:09:10.202Z,981.42
2019-02-27T12:10:10.196Z,981.39
2019-02-27T12:11:13.281Z,981.34
2019-02-27T12:12:10.525Z,981.30
2019-02-27T12:13:10.174Z,981.31
2019-02-27T12:14:10.169Z,981.30
2019-02-27T12:15:10.164Z,981.29
2019-02-27T12:16:10.737Z,981.29
2019-02-27T12:17:10.146Z,981.30
2019-02-27T12:18:10.140Z,981.34
2019-02-27T12:19:10.134Z,981.28
2019-02-27T12:20:10.124Z,981.27
2019-02-27T12:21:10.118Z,981.23
2019-02-27T12:22:10.114Z,981.26
2019-02-27T12:23:10.748Z,981.25
2019-02-27T12:24:10.098Z,981.24
2019-02-27T12:25:10.089Z,981.22
2019-02-27T12:26:10.082Z,981.23
2019-02-27T12:27:10.390Z,981.16
2019-02-27T12:28:10.071Z,981.17
2019-02-27T12:29:10.062Z,981.14
2019-02-27T12:30:10.055Z,981.13